sensor_id;sensor_type;location;lat;lon;timestamp;P1;durP1;ratioP1;P2;durP2;ratioP2
19030;SDS011;9648;51.130;13.978;2023-04-24T00:01:16;5.50;;;4.43;;
19030;SDS011;9648;51.130;13.978;2023-04-24T00:03:44;6.50;;;4.40;;
19030;SDS011;9648;51.130;13.978;2023-04-24T00:06:11;5.07;;;4.20;;
19030;SDS011;9648;51.130;13.978;2023-04-24T00:08:37;6.25;;;4.38;;
19030;SDS011;9648;51.130;13.978;2023-04-24T00:11:05;6.95;;;4.60;;
19030;SDS011;9648;51.130;13.978;2023-04-24T00:13:31;7.47;;;4.63;;
19030;SDS011;9648;51.130;13.978;2023-04-24T00:15:59;7.22;;;4.60;;
19030;SDS011;9648;51.130;13.978;2023-04-24T00:18:26;6.45;;;4.57;;
19030;SDS011;9648;51.130;13.978;2023-04-24T00:20:53;6.22;;;4.32;;
19030;SDS011;9648;51.130;13.978;2023-04-24T00:23:19;5.57;;;4.35;;
19030;SDS011;9648;51.130;13.978;2023-04-24T00:25:49;6.25;;;4.60;;
19030;SDS011;9648;51.130;13.978;2023-04-24T00:28:19;5.65;;;4.50;;
19030;SDS011;9648;51.130;13.978;2023-04-24T00:30:46;5.80;;;4.40;;
19030;SDS011;9648;51.130;13.978;2023-04-24T00:33:17;5.95;;;4.22;;
19030;SDS011;9648;51.130;13.978;2023-04-24T00:35:43;5.97;;;4.30;;
19030;SDS011;9648;51.130;13.978;2023-04-24T00:38:13;6.38;;;4.38;;
19030;SDS011;9648;51.130;13.978;2023-04-24T00:40:40;5.37;;;4.43;;
19030;SDS011;9648;51.130;13.978;2023-04-24T00:43:10;5.53;;;4.03;;
19030;SDS011;9648;51.130;13.978;2023-04-24T00:45:37;5.30;;;4.00;;
19030;SDS011;9648;51.130;13.978;2023-04-24T00:48:04;8.98;;;4.60;;
19030;SDS011;9648;51.130;13.978;2023-04-24T00:50:32;6.50;;;4.80;;
19030;SDS011;9648;51.130;13.978;2023-04-24T00:53:01;5.20;;;4.40;;
19030;SDS011;9648;51.130;13.978;2023-04-24T00:55:28;4.70;;;4.07;;
19030;SDS011;9648;51.130;13.978;2023-04-24T00:57:58;5.38;;;4.50;;
19030;SDS011;9648;51.130;13.978;2023-04-24T01:00:25;4.35;;;3.90;;
19030;SDS011;9648;51.130;13.978;2023-04-24T01:02:52;6.20;;;4.80;;
19030;SDS011;9648;51.130;13.978;2023-04-24T01:05:19;5.53;;;4.32;;
19030;SDS011;9648;51.130;13.978;2023-04-24T01:07:50;4.40;;;3.88;;
19030;SDS011;9648;51.130;13.978;2023-04-24T01:10:19;5.60;;;4.20;;
19030;SDS011;9648;51.130;13.978;2023-04-24T01:12:46;6.53;;;4.32;;
19030;SDS011;9648;51.130;13.978;2023-04-24T01:15:13;6.05;;;4.35;;
19030;SDS011;9648;51.130;13.978;2023-04-24T01:17:40;5.68;;;4.78;;
19030;SDS011;9648;51.130;13.978;2023-04-24T01:20:07;6.88;;;4.13;;
19030;SDS011;9648;51.130;13.978;2023-04-24T01:22:36;6.03;;;4.37;;
19030;SDS011;9648;51.130;13.978;2023-04-24T01:25:03;7.10;;;4.97;;
19030;SDS011;9648;51.130;13.978;2023-04-24T01:27:31;6.10;;;4.60;;
19030;SDS011;9648;51.130;13.978;2023-04-24T01:29:58;7.70;;;5.20;;
19030;SDS011;9648;51.130;13.978;2023-04-24T01:32:25;6.70;;;4.78;;
19030;SDS011;9648;51.130;13.978;2023-04-24T01:34:54;6.73;;;5.13;;
19030;SDS011;9648;51.130;13.978;2023-04-24T01:37:22;6.10;;;5.10;;
19030;SDS011;9648;51.130;13.978;2023-04-24T01:39:50;8.05;;;5.35;;
19030;SDS011;9648;51.130;13.978;2023-04-24T01:42:20;7.53;;;4.90;;
19030;SDS011;9648;51.130;13.978;2023-04-24T01:44:47;6.30;;;4.93;;
19030;SDS011;9648;51.130;13.978;2023-04-24T01:47:17;7.67;;;5.30;;
19030;SDS011;9648;51.130;13.978;2023-04-24T01:49:44;6.53;;;4.80;;
19030;SDS011;9648;51.130;13.978;2023-04-24T01:52:13;6.72;;;5.18;;
19030;SDS011;9648;51.130;13.978;2023-04-24T01:54:41;7.57;;;5.47;;
19030;SDS011;9648;51.130;13.978;2023-04-24T01:57:09;7.53;;;5.43;;
19030;SDS011;9648;51.130;13.978;2023-04-24T01:59:36;5.18;;;4.47;;
19030;SDS011;9648;51.130;13.978;2023-04-24T02:02:05;5.77;;;4.70;;
19030;SDS011;9648;51.130;13.978;2023-04-24T02:04:32;7.70;;;5.70;;
19030;SDS011;9648;51.130;13.978;2023-04-24T02:07:02;6.50;;;5.00;;
19030;SDS011;9648;51.130;13.978;2023-04-24T02:09:32;9.00;;;5.67;;
19030;SDS011;9648;51.130;13.978;2023-04-24T02:11:58;6.80;;;5.30;;
19030;SDS011;9648;51.130;13.978;2023-04-24T02:14:27;6.80;;;4.93;;
19030;SDS011;9648;51.130;13.978;2023-04-24T02:16:53;6.00;;;4.97;;
19030;SDS011;9648;51.130;13.978;2023-04-24T02:19:20;8.05;;;5.50;;
19030;SDS011;9648;51.130;13.978;2023-04-24T02:21:50;6.75;;;5.32;;
19030;SDS011;9648;51.130;13.978;2023-04-24T02:24:22;7.63;;;5.30;;
19030;SDS011;9648;51.130;13.978;2023-04-24T02:26:49;5.68;;;4.95;;
19030;SDS011;9648;51.130;13.978;2023-04-24T02:29:19;7.30;;;5.85;;
19030;SDS011;9648;51.130;13.978;2023-04-24T02:31:47;5.72;;;4.70;;
19030;SDS011;9648;51.130;13.978;2023-04-24T02:34:14;7.57;;;5.30;;
19030;SDS011;9648;51.130;13.978;2023-04-24T02:36:41;6.15;;;5.00;;
19030;SDS011;9648;51.130;13.978;2023-04-24T02:39:08;7.80;;;5.85;;
19030;SDS011;9648;51.130;13.978;2023-04-24T02:41:34;6.30;;;5.07;;
19030;SDS011;9648;51.130;13.978;2023-04-24T02:44:02;6.57;;;4.95;;
19030;SDS011;9648;51.130;13.978;2023-04-24T02:46:28;6.75;;;4.93;;
19030;SDS011;9648;51.130;13.978;2023-04-24T02:48:57;5.88;;;4.93;;
19030;SDS011;9648;51.130;13.978;2023-04-24T02:51:23;5.40;;;4.57;;
19030;SDS011;9648;51.130;13.978;2023-04-24T02:53:50;7.88;;;5.50;;
19030;SDS011;9648;51.130;13.978;2023-04-24T02:56:20;6.47;;;5.53;;
19030;SDS011;9648;51.130;13.978;2023-04-24T02:58:47;6.45;;;5.20;;
19030;SDS011;9648;51.130;13.978;2023-04-24T03:01:16;6.80;;;5.15;;
19030;SDS011;9648;51.130;13.978;2023-04-24T03:03:43;7.60;;;5.73;;
19030;SDS011;9648;51.130;13.978;2023-04-24T03:06:11;6.90;;;5.50;;
19030;SDS011;9648;51.130;13.978;2023-04-24T03:08:38;6.67;;;5.50;;
19030;SDS011;9648;51.130;13.978;2023-04-24T03:11:05;7.50;;;5.63;;
19030;SDS011;9648;51.130;13.978;2023-04-24T03:13:32;6.15;;;5.15;;
19030;SDS011;9648;51.130;13.978;2023-04-24T03:15:58;8.70;;;5.93;;
19030;SDS011;9648;51.130;13.978;2023-04-24T03:18:25;8.85;;;5.68;;
19030;SDS011;9648;51.130;13.978;2023-04-24T03:20:55;7.40;;;5.60;;
19030;SDS011;9648;51.130;13.978;2023-04-24T03:23:23;8.18;;;6.10;;
19030;SDS011;9648;51.130;13.978;2023-04-24T03:25:49;7.60;;;5.97;;
19030;SDS011;9648;51.130;13.978;2023-04-24T03:28:19;8.35;;;5.95;;
19030;SDS011;9648;51.130;13.978;2023-04-24T03:30:46;8.25;;;5.80;;
19030;SDS011;9648;51.130;13.978;2023-04-24T03:33:16;7.60;;;5.47;;
19030;SDS011;9648;51.130;13.978;2023-04-24T03:35:42;7.25;;;5.30;;
19030;SDS011;9648;51.130;13.978;2023-04-24T03:38:16;7.82;;;5.22;;
19030;SDS011;9648;51.130;13.978;2023-04-24T03:40:44;6.95;;;5.05;;
19030;SDS011;9648;51.130;13.978;2023-04-24T03:43:11;7.13;;;5.30;;
19030;SDS011;9648;51.130;13.978;2023-04-24T03:45:37;5.60;;;4.57;;
19030;SDS011;9648;51.130;13.978;2023-04-24T03:48:04;5.38;;;4.20;;
19030;SDS011;9648;51.130;13.978;2023-04-24T03:50:31;5.20;;;4.03;;
19030;SDS011;9648;51.130;13.978;2023-04-24T03:53:01;6.80;;;4.10;;
19030;SDS011;9648;51.130;13.978;2023-04-24T03:55:28;5.13;;;3.42;;
19030;SDS011;9648;51.130;13.978;2023-04-24T03:57:59;4.70;;;3.47;;
19030;SDS011;9648;51.130;13.978;2023-04-24T04:00:26;5.13;;;3.80;;
19030;SDS011;9648;51.130;13.978;2023-04-24T04:02:53;6.68;;;4.13;;
19030;SDS011;9648;51.130;13.978;2023-04-24T04:05:20;7.93;;;4.50;;
19030;SDS011;9648;51.130;13.978;2023-04-24T04:07:49;8.48;;;4.88;;
19030;SDS011;9648;51.130;13.978;2023-04-24T04:10:16;10.67;;;6.50;;
19030;SDS011;9648;51.130;13.978;2023-04-24T04:12:43;11.65;;;6.55;;
19030;SDS011;9648;51.130;13.978;2023-04-24T04:15:11;8.60;;;5.57;;
19030;SDS011;9648;51.130;13.978;2023-04-24T04:17:38;9.80;;;6.40;;
19030;SDS011;9648;51.130;13.978;2023-04-24T04:20:05;8.88;;;5.03;;
19030;SDS011;9648;51.130;13.978;2023-04-24T04:22:35;4.88;;;2.65;;
19030;SDS011;9648;51.130;13.978;2023-04-24T04:25:05;4.63;;;2.58;;
19030;SDS011;9648;51.130;13.978;2023-04-24T04:27:32;3.25;;;1.90;;
19030;SDS011;9648;51.130;13.978;2023-04-24T04:30:00;3.17;;;1.90;;
19030;SDS011;9648;51.130;13.978;2023-04-24T04:32:33;2.30;;;1.70;;
19030;SDS011;9648;51.130;13.978;2023-04-24T04:35:00;4.63;;;1.70;;
19030;SDS011;9648;51.130;13.978;2023-04-24T04:37:28;2.80;;;1.75;;
19030;SDS011;9648;51.130;13.978;2023-04-24T04:39:55;2.20;;;1.40;;
19030;SDS011;9648;51.130;13.978;2023-04-24T04:42:23;2.00;;;1.40;;
19030;SDS011;9648;51.130;13.978;2023-04-24T04:44:49;3.05;;;1.30;;
19030;SDS011;9648;51.130;13.978;2023-04-24T04:47:20;2.70;;;1.30;;
19030;SDS011;9648;51.130;13.978;2023-04-24T04:49:52;3.80;;;1.40;;
19030;SDS011;9648;51.130;13.978;2023-04-24T04:52:19;1.58;;;1.27;;
19030;SDS011;9648;51.130;13.978;2023-04-24T04:54:49;3.22;;;1.40;;
19030;SDS011;9648;51.130;13.978;2023-04-24T04:57:16;2.10;;;1.07;;
19030;SDS011;9648;51.130;13.978;2023-04-24T04:59:43;2.40;;;1.23;;
19030;SDS011;9648;51.130;13.978;2023-04-24T05:02:09;2.70;;;1.00;;
19030;SDS011;9648;51.130;13.978;2023-04-24T05:04:36;2.15;;;1.13;;
19030;SDS011;9648;51.130;13.978;2023-04-24T05:07:04;2.63;;;1.20;;
19030;SDS011;9648;51.130;13.978;2023-04-24T05:09:31;3.33;;;1.55;;
19030;SDS011;9648;51.130;13.978;2023-04-24T05:11:58;1.23;;;1.00;;
19030;SDS011;9648;51.130;13.978;2023-04-24T05:14:25;1.63;;;1.00;;
19030;SDS011;9648;51.130;13.978;2023-04-24T05:16:52;3.72;;;1.30;;
19030;SDS011;9648;51.130;13.978;2023-04-24T05:19:18;3.13;;;1.10;;
19030;SDS011;9648;51.130;13.978;2023-04-24T05:21:45;1.35;;;0.80;;
19030;SDS011;9648;51.130;13.978;2023-04-24T05:24:13;3.45;;;1.08;;
19030;SDS011;9648;51.130;13.978;2023-04-24T05:26:40;3.10;;;1.10;;
19030;SDS011;9648;51.130;13.978;2023-04-24T05:29:10;2.27;;;1.00;;
19030;SDS011;9648;51.130;13.978;2023-04-24T05:31:37;2.28;;;1.30;;
19030;SDS011;9648;51.130;13.978;2023-04-24T05:34:12;1.20;;;0.95;;
19030;SDS011;9648;51.130;13.978;2023-04-24T05:36:41;2.13;;;0.90;;
19030;SDS011;9648;51.130;13.978;2023-04-24T05:39:07;1.20;;;0.90;;
19030;SDS011;9648;51.130;13.978;2023-04-24T05:41:35;3.90;;;1.10;;
19030;SDS011;9648;51.130;13.978;2023-04-24T05:44:05;2.40;;;0.98;;
19030;SDS011;9648;51.130;13.978;2023-04-24T05:46:32;0.83;;;0.60;;
19030;SDS011;9648;51.130;13.978;2023-04-24T05:48:58;2.58;;;0.90;;
19030;SDS011;9648;51.130;13.978;2023-04-24T05:51:25;2.63;;;0.80;;
19030;SDS011;9648;51.130;13.978;2023-04-24T05:53:52;2.47;;;1.00;;
19030;SDS011;9648;51.130;13.978;2023-04-24T05:56:19;2.10;;;1.00;;
19030;SDS011;9648;51.130;13.978;2023-04-24T05:58:48;4.13;;;1.20;;
19030;SDS011;9648;51.130;13.978;2023-04-24T06:01:17;3.40;;;1.40;;
19030;SDS011;9648;51.130;13.978;2023-04-24T06:03:44;2.40;;;1.40;;
19030;SDS011;9648;51.130;13.978;2023-04-24T06:06:11;3.17;;;1.20;;
19030;SDS011;9648;51.130;13.978;2023-04-24T06:08:38;2.63;;;1.10;;
19030;SDS011;9648;51.130;13.978;2023-04-24T06:11:04;2.67;;;1.17;;
19030;SDS011;9648;51.130;13.978;2023-04-24T06:13:31;3.28;;;1.10;;
19030;SDS011;9648;51.130;13.978;2023-04-24T06:16:02;2.45;;;1.20;;
19030;SDS011;9648;51.130;13.978;2023-04-24T06:18:29;2.83;;;1.15;;
19030;SDS011;9648;51.130;13.978;2023-04-24T06:20:56;2.45;;;1.05;;
19030;SDS011;9648;51.130;13.978;2023-04-24T06:23:22;2.50;;;1.10;;
19030;SDS011;9648;51.130;13.978;2023-04-24T06:25:53;2.47;;;1.00;;
19030;SDS011;9648;51.130;13.978;2023-04-24T06:28:22;1.75;;;0.93;;
19030;SDS011;9648;51.130;13.978;2023-04-24T06:30:49;1.58;;;0.82;;
19030;SDS011;9648;51.130;13.978;2023-04-24T06:33:17;2.70;;;1.05;;
19030;SDS011;9648;51.130;13.978;2023-04-24T06:35:44;2.40;;;0.95;;
19030;SDS011;9648;51.130;13.978;2023-04-24T06:38:11;1.87;;;1.00;;
19030;SDS011;9648;51.130;13.978;2023-04-24T06:40:37;3.10;;;0.90;;
19030;SDS011;9648;51.130;13.978;2023-04-24T06:43:04;2.22;;;1.00;;
19030;SDS011;9648;51.130;13.978;2023-04-24T06:45:31;1.70;;;1.00;;
19030;SDS011;9648;51.130;13.978;2023-04-24T06:48:01;1.92;;;0.90;;
19030;SDS011;9648;51.130;13.978;2023-04-24T06:50:29;2.75;;;1.20;;
19030;SDS011;9648;51.130;13.978;2023-04-24T06:52:56;1.75;;;0.90;;
19030;SDS011;9648;51.130;13.978;2023-04-24T06:55:22;1.25;;;0.88;;
19030;SDS011;9648;51.130;13.978;2023-04-24T06:57:49;3.25;;;1.00;;
19030;SDS011;9648;51.130;13.978;2023-04-24T07:00:16;1.50;;;0.90;;
19030;SDS011;9648;51.130;13.978;2023-04-24T07:02:43;2.20;;;1.10;;
19030;SDS011;9648;51.130;13.978;2023-04-24T07:05:12;2.15;;;1.30;;
19030;SDS011;9648;51.130;13.978;2023-04-24T07:07:41;2.30;;;0.80;;
19030;SDS011;9648;51.130;13.978;2023-04-24T07:10:08;3.03;;;1.00;;
19030;SDS011;9648;51.130;13.978;2023-04-24T07:12:35;2.13;;;0.90;;
19030;SDS011;9648;51.130;13.978;2023-04-24T07:15:02;2.88;;;1.20;;
19030;SDS011;9648;51.130;13.978;2023-04-24T07:17:30;1.80;;;1.10;;
19030;SDS011;9648;51.130;13.978;2023-04-24T07:19:59;1.30;;;0.90;;
19030;SDS011;9648;51.130;13.978;2023-04-24T07:22:26;3.07;;;1.10;;
19030;SDS011;9648;51.130;13.978;2023-04-24T07:24:54;2.17;;;1.00;;
19030;SDS011;9648;51.130;13.978;2023-04-24T07:27:21;2.13;;;1.05;;
19030;SDS011;9648;51.130;13.978;2023-04-24T07:29:47;2.03;;;0.88;;
19030;SDS011;9648;51.130;13.978;2023-04-24T07:32:17;2.70;;;1.08;;
19030;SDS011;9648;51.130;13.978;2023-04-24T07:34:44;4.00;;;1.58;;
19030;SDS011;9648;51.130;13.978;2023-04-24T07:37:13;2.30;;;0.93;;
19030;SDS011;9648;51.130;13.978;2023-04-24T07:39:40;2.38;;;1.00;;
19030;SDS011;9648;51.130;13.978;2023-04-24T07:42:08;1.23;;;0.80;;
19030;SDS011;9648;51.130;13.978;2023-04-24T07:44:38;1.02;;;0.60;;
19030;SDS011;9648;51.130;13.978;2023-04-24T07:47:05;1.35;;;0.65;;
19030;SDS011;9648;51.130;13.978;2023-04-24T07:49:32;3.65;;;1.50;;
19030;SDS011;9648;51.130;13.978;2023-04-24T07:51:59;2.43;;;1.30;;
19030;SDS011;9648;51.130;13.978;2023-04-24T07:54:27;4.28;;;1.20;;
19030;SDS011;9648;51.130;13.978;2023-04-24T07:56:57;1.92;;;1.20;;
19030;SDS011;9648;51.130;13.978;2023-04-24T07:59:29;2.00;;;1.00;;
19030;SDS011;9648;51.130;13.978;2023-04-24T08:01:55;2.33;;;0.80;;
19030;SDS011;9648;51.130;13.978;2023-04-24T08:04:22;2.25;;;0.82;;
19030;SDS011;9648;51.130;13.978;2023-04-24T08:06:49;4.07;;;1.10;;
19030;SDS011;9648;51.130;13.978;2023-04-24T08:09:19;4.07;;;1.02;;
19030;SDS011;9648;51.130;13.978;2023-04-24T08:11:45;2.33;;;0.90;;
19030;SDS011;9648;51.130;13.978;2023-04-24T08:14:15;2.17;;;1.00;;
19030;SDS011;9648;51.130;13.978;2023-04-24T08:16:43;3.55;;;1.00;;
19030;SDS011;9648;51.130;13.978;2023-04-24T08:19:13;1.63;;;0.90;;
19030;SDS011;9648;51.130;13.978;2023-04-24T08:21:40;5.15;;;1.30;;
19030;SDS011;9648;51.130;13.978;2023-04-24T08:24:06;1.38;;;0.70;;
19030;SDS011;9648;51.130;13.978;2023-04-24T08:26:33;2.90;;;0.90;;
19030;SDS011;9648;51.130;13.978;2023-04-24T08:29:04;3.25;;;1.00;;
19030;SDS011;9648;51.130;13.978;2023-04-24T08:31:31;3.13;;;1.10;;
19030;SDS011;9648;51.130;13.978;2023-04-24T08:33:59;2.05;;;0.80;;
19030;SDS011;9648;51.130;13.978;2023-04-24T08:36:26;2.90;;;1.00;;
19030;SDS011;9648;51.130;13.978;2023-04-24T08:38:56;1.98;;;1.08;;
19030;SDS011;9648;51.130;13.978;2023-04-24T08:41:22;1.58;;;0.60;;
19030;SDS011;9648;51.130;13.978;2023-04-24T08:43:51;3.30;;;0.98;;
19030;SDS011;9648;51.130;13.978;2023-04-24T08:46:18;3.30;;;0.90;;
19030;SDS011;9648;51.130;13.978;2023-04-24T08:48:46;3.23;;;1.07;;
19030;SDS011;9648;51.130;13.978;2023-04-24T08:51:14;1.70;;;0.77;;
19030;SDS011;9648;51.130;13.978;2023-04-24T08:53:41;2.43;;;0.73;;
19030;SDS011;9648;51.130;13.978;2023-04-24T08:56:08;1.60;;;0.63;;
19030;SDS011;9648;51.130;13.978;2023-04-24T08:58:37;3.28;;;0.70;;
19030;SDS011;9648;51.130;13.978;2023-04-24T09:01:04;1.73;;;0.60;;
19030;SDS011;9648;51.130;13.978;2023-04-24T09:03:32;1.80;;;0.80;;
19030;SDS011;9648;51.130;13.978;2023-04-24T09:06:02;2.83;;;0.80;;
19030;SDS011;9648;51.130;13.978;2023-04-24T09:08:33;1.55;;;0.70;;
19030;SDS011;9648;51.130;13.978;2023-04-24T09:11:04;2.45;;;0.95;;
19030;SDS011;9648;51.130;13.978;2023-04-24T09:13:33;2.35;;;1.10;;
19030;SDS011;9648;51.130;13.978;2023-04-24T09:16:00;4.28;;;1.20;;
19030;SDS011;9648;51.130;13.978;2023-04-24T09:18:27;5.72;;;0.95;;
19030;SDS011;9648;51.130;13.978;2023-04-24T09:20:57;3.58;;;0.95;;
19030;SDS011;9648;51.130;13.978;2023-04-24T09:23:25;2.38;;;1.00;;
19030;SDS011;9648;51.130;13.978;2023-04-24T09:25:55;2.40;;;0.90;;
19030;SDS011;9648;51.130;13.978;2023-04-24T09:28:25;2.15;;;0.90;;
19030;SDS011;9648;51.130;13.978;2023-04-24T09:31:01;3.92;;;0.90;;
19030;SDS011;9648;51.130;13.978;2023-04-24T09:33:32;2.73;;;1.33;;
19030;SDS011;9648;51.130;13.978;2023-04-24T09:36:02;3.45;;;1.30;;
19030;SDS011;9648;51.130;13.978;2023-04-24T09:38:33;3.38;;;0.95;;
19030;SDS011;9648;51.130;13.978;2023-04-24T09:41:03;2.67;;;0.90;;
19030;SDS011;9648;51.130;13.978;2023-04-24T09:43:31;1.48;;;0.70;;
19030;SDS011;9648;51.130;13.978;2023-04-24T09:45:59;1.00;;;0.45;;
19030;SDS011;9648;51.130;13.978;2023-04-24T09:48:33;0.90;;;0.50;;
19030;SDS011;9648;51.130;13.978;2023-04-24T09:51:04;0.93;;;0.40;;
19030;SDS011;9648;51.130;13.978;2023-04-24T09:53:35;2.65;;;0.88;;
19030;SDS011;9648;51.130;13.978;2023-04-24T09:56:06;1.10;;;0.70;;
19030;SDS011;9648;51.130;13.978;2023-04-24T09:58:34;1.77;;;0.63;;
19030;SDS011;9648;51.130;13.978;2023-04-24T10:01:01;1.15;;;0.60;;
19030;SDS011;9648;51.130;13.978;2023-04-24T10:03:29;1.50;;;0.70;;
19030;SDS011;9648;51.130;13.978;2023-04-24T10:05:59;1.00;;;0.50;;
19030;SDS011;9648;51.130;13.978;2023-04-24T10:08:26;2.27;;;0.67;;
19030;SDS011;9648;51.130;13.978;2023-04-24T10:11:00;2.27;;;0.90;;
19030;SDS011;9648;51.130;13.978;2023-04-24T10:13:28;2.50;;;0.60;;
19030;SDS011;9648;51.130;13.978;2023-04-24T10:15:59;1.77;;;0.67;;
19030;SDS011;9648;51.130;13.978;2023-04-24T10:18:27;2.95;;;0.60;;
19030;SDS011;9648;51.130;13.978;2023-04-24T10:20:54;1.17;;;0.52;;
19030;SDS011;9648;51.130;13.978;2023-04-24T10:23:21;1.83;;;0.70;;
19030;SDS011;9648;51.130;13.978;2023-04-24T10:25:51;2.13;;;1.10;;
19030;SDS011;9648;51.130;13.978;2023-04-24T10:28:19;1.17;;;0.60;;
19030;SDS011;9648;51.130;13.978;2023-04-24T10:30:48;1.42;;;0.52;;
19030;SDS011;9648;51.130;13.978;2023-04-24T10:33:16;2.45;;;0.93;;
19030;SDS011;9648;51.130;13.978;2023-04-24T10:35:44;2.92;;;0.80;;
19030;SDS011;9648;51.130;13.978;2023-04-24T10:38:18;3.38;;;0.60;;
19030;SDS011;9648;51.130;13.978;2023-04-24T10:40:50;2.55;;;0.90;;
19030;SDS011;9648;51.130;13.978;2023-04-24T10:43:17;1.23;;;0.60;;
19030;SDS011;9648;51.130;13.978;2023-04-24T10:48:44;1.52;;;0.60;;
19030;SDS011;9648;51.130;13.978;2023-04-24T10:51:21;1.80;;;0.60;;
19030;SDS011;9648;51.130;13.978;2023-04-24T10:53:49;1.40;;;0.70;;
19030;SDS011;9648;51.130;13.978;2023-04-24T10:56:16;2.13;;;0.95;;
19030;SDS011;9648;51.130;13.978;2023-04-24T10:58:44;2.85;;;0.60;;
19030;SDS011;9648;51.130;13.978;2023-04-24T11:01:23;2.72;;;0.68;;
19030;SDS011;9648;51.130;13.978;2023-04-24T11:03:55;4.10;;;0.90;;
19030;SDS011;9648;51.130;13.978;2023-04-24T11:06:28;1.25;;;0.45;;
19030;SDS011;9648;51.130;13.978;2023-04-24T11:09:02;1.40;;;0.60;;
19030;SDS011;9648;51.130;13.978;2023-04-24T11:11:30;2.17;;;0.60;;
19030;SDS011;9648;51.130;13.978;2023-04-24T11:14:07;1.42;;;0.50;;
19030;SDS011;9648;51.130;13.978;2023-04-24T11:16:35;2.30;;;0.50;;
19030;SDS011;9648;51.130;13.978;2023-04-24T11:19:06;1.38;;;0.60;;
19030;SDS011;9648;51.130;13.978;2023-04-24T11:21:41;0.90;;;0.50;;
19030;SDS011;9648;51.130;13.978;2023-04-24T11:27:01;1.17;;;0.70;;
19030;SDS011;9648;51.130;13.978;2023-04-24T11:29:39;1.73;;;0.70;;
19030;SDS011;9648;51.130;13.978;2023-04-24T11:32:14;1.20;;;0.50;;
19030;SDS011;9648;51.130;13.978;2023-04-24T11:34:46;1.20;;;0.40;;
19030;SDS011;9648;51.130;13.978;2023-04-24T11:37:13;0.93;;;0.60;;
19030;SDS011;9648;51.130;13.978;2023-04-24T11:39:40;2.17;;;0.60;;
19030;SDS011;9648;51.130;13.978;2023-04-24T11:42:07;1.50;;;0.55;;
19030;SDS011;9648;51.130;13.978;2023-04-24T11:44:35;2.33;;;0.77;;
19030;SDS011;9648;51.130;13.978;2023-04-24T11:47:02;2.90;;;0.60;;
19030;SDS011;9648;51.130;13.978;2023-04-24T11:49:32;2.05;;;0.90;;
19030;SDS011;9648;51.130;13.978;2023-04-24T11:52:00;1.95;;;1.10;;
19030;SDS011;9648;51.130;13.978;2023-04-24T11:54:27;1.80;;;1.00;;
19030;SDS011;9648;51.130;13.978;2023-04-24T11:56:55;3.60;;;1.10;;
19030;SDS011;9648;51.130;13.978;2023-04-24T11:59:22;1.98;;;0.90;;
19030;SDS011;9648;51.130;13.978;2023-04-24T12:01:49;1.27;;;0.70;;
19030;SDS011;9648;51.130;13.978;2023-04-24T12:04:19;2.28;;;0.85;;
19030;SDS011;9648;51.130;13.978;2023-04-24T12:06:58;3.47;;;0.80;;
19030;SDS011;9648;51.130;13.978;2023-04-24T12:09:26;1.38;;;0.70;;
19030;SDS011;9648;51.130;13.978;2023-04-24T12:11:53;1.10;;;0.50;;
19030;SDS011;9648;51.130;13.978;2023-04-24T12:14:21;1.40;;;0.75;;
19030;SDS011;9648;51.130;13.978;2023-04-24T12:16:48;1.20;;;0.50;;
19030;SDS011;9648;51.130;13.978;2023-04-24T12:19:17;1.35;;;0.70;;
19030;SDS011;9648;51.130;13.978;2023-04-24T12:21:58;1.45;;;0.43;;
19030;SDS011;9648;51.130;13.978;2023-04-24T12:24:27;1.30;;;0.70;;
19030;SDS011;9648;51.130;13.978;2023-04-24T12:26:55;0.80;;;0.60;;
19030;SDS011;9648;51.130;13.978;2023-04-24T12:29:22;2.30;;;0.80;;
19030;SDS011;9648;51.130;13.978;2023-04-24T12:31:50;2.60;;;0.80;;
19030;SDS011;9648;51.130;13.978;2023-04-24T12:34:20;1.80;;;0.50;;
19030;SDS011;9648;51.130;13.978;2023-04-24T12:36:48;1.25;;;0.60;;
19030;SDS011;9648;51.130;13.978;2023-04-24T12:39:16;0.77;;;0.60;;
19030;SDS011;9648;51.130;13.978;2023-04-24T12:41:50;1.05;;;0.52;;
19030;SDS011;9648;51.130;13.978;2023-04-24T12:44:28;0.83;;;0.60;;
19030;SDS011;9648;51.130;13.978;2023-04-24T12:46:55;0.60;;;0.52;;
19030;SDS011;9648;51.130;13.978;2023-04-24T12:49:22;1.65;;;0.75;;
19030;SDS011;9648;51.130;13.978;2023-04-24T12:51:49;2.33;;;0.80;;
19030;SDS011;9648;51.130;13.978;2023-04-24T12:54:17;2.80;;;1.00;;
19030;SDS011;9648;51.130;13.978;2023-04-24T12:56:43;1.80;;;0.70;;
19030;SDS011;9648;51.130;13.978;2023-04-24T12:59:13;1.88;;;0.85;;
19030;SDS011;9648;51.130;13.978;2023-04-24T13:01:40;2.30;;;0.60;;
19030;SDS011;9648;51.130;13.978;2023-04-24T13:04:07;1.17;;;0.80;;
19030;SDS011;9648;51.130;13.978;2023-04-24T13:06:34;1.65;;;0.80;;
19030;SDS011;9648;51.130;13.978;2023-04-24T13:09:01;2.67;;;0.90;;
19030;SDS011;9648;51.130;13.978;2023-04-24T13:11:32;1.52;;;0.90;;
19030;SDS011;9648;51.130;13.978;2023-04-24T13:13:59;2.03;;;0.70;;
19030;SDS011;9648;51.130;13.978;2023-04-24T13:16:26;1.90;;;0.80;;
19030;SDS011;9648;51.130;13.978;2023-04-24T13:18:52;1.45;;;0.80;;
19030;SDS011;9648;51.130;13.978;2023-04-24T13:21:19;3.20;;;0.90;;
19030;SDS011;9648;51.130;13.978;2023-04-24T13:23:49;2.87;;;0.70;;
19030;SDS011;9648;51.130;13.978;2023-04-24T13:26:16;3.30;;;0.80;;
19030;SDS011;9648;51.130;13.978;2023-04-24T13:28:45;1.98;;;0.70;;
19030;SDS011;9648;51.130;13.978;2023-04-24T13:31:11;2.28;;;0.80;;
19030;SDS011;9648;51.130;13.978;2023-04-24T13:33:38;3.05;;;0.75;;
19030;SDS011;9648;51.130;13.978;2023-04-24T13:36:05;2.30;;;0.80;;
19030;SDS011;9648;51.130;13.978;2023-04-24T13:38:35;2.20;;;0.80;;
19030;SDS011;9648;51.130;13.978;2023-04-24T13:41:02;0.80;;;0.67;;
19030;SDS011;9648;51.130;13.978;2023-04-24T13:43:28;2.42;;;0.70;;
19030;SDS011;9648;51.130;13.978;2023-04-24T13:45:56;2.53;;;0.60;;
19030;SDS011;9648;51.130;13.978;2023-04-24T13:48:24;1.10;;;0.60;;
19030;SDS011;9648;51.130;13.978;2023-04-24T13:50:51;2.83;;;0.90;;
19030;SDS011;9648;51.130;13.978;2023-04-24T13:53:17;4.15;;;0.88;;
19030;SDS011;9648;51.130;13.978;2023-04-24T13:55:44;2.10;;;0.65;;
19030;SDS011;9648;51.130;13.978;2023-04-24T13:58:11;1.10;;;0.70;;
19030;SDS011;9648;51.130;13.978;2023-04-24T14:00:37;2.83;;;0.80;;
19030;SDS011;9648;51.130;13.978;2023-04-24T14:03:06;2.72;;;0.90;;
19030;SDS011;9648;51.130;13.978;2023-04-24T14:05:32;1.70;;;0.80;;
19030;SDS011;9648;51.130;13.978;2023-04-24T14:07:59;1.92;;;0.73;;
19030;SDS011;9648;51.130;13.978;2023-04-24T14:10:26;2.03;;;1.00;;
19030;SDS011;9648;51.130;13.978;2023-04-24T14:12:53;1.85;;;0.75;;
19030;SDS011;9648;51.130;13.978;2023-04-24T14:15:20;3.00;;;0.80;;
19030;SDS011;9648;51.130;13.978;2023-04-24T14:17:49;2.00;;;0.80;;
19030;SDS011;9648;51.130;13.978;2023-04-24T14:20:18;2.97;;;0.70;;
19030;SDS011;9648;51.130;13.978;2023-04-24T14:22:44;2.87;;;0.80;;
19030;SDS011;9648;51.130;13.978;2023-04-24T14:25:11;1.13;;;0.70;;
19030;SDS011;9648;51.130;13.978;2023-04-24T14:27:38;1.50;;;0.80;;
19030;SDS011;9648;51.130;13.978;2023-04-24T14:30:05;2.78;;;0.90;;
19030;SDS011;9648;51.130;13.978;2023-04-24T14:32:36;2.30;;;0.85;;
19030;SDS011;9648;51.130;13.978;2023-04-24T14:35:04;3.40;;;0.90;;
19030;SDS011;9648;51.130;13.978;2023-04-24T14:37:32;1.70;;;0.80;;
19030;SDS011;9648;51.130;13.978;2023-04-24T14:40:00;1.27;;;0.80;;
19030;SDS011;9648;51.130;13.978;2023-04-24T14:42:28;3.45;;;1.23;;
19030;SDS011;9648;51.130;13.978;2023-04-24T14:44:57;2.20;;;0.93;;
19030;SDS011;9648;51.130;13.978;2023-04-24T14:47:26;1.60;;;0.77;;
19030;SDS011;9648;51.130;13.978;2023-04-24T14:49:54;2.50;;;1.30;;
19030;SDS011;9648;51.130;13.978;2023-04-24T14:52:21;1.60;;;0.93;;
19030;SDS011;9648;51.130;13.978;2023-04-24T14:54:50;1.13;;;0.90;;
19030;SDS011;9648;51.130;13.978;2023-04-24T14:57:16;1.95;;;1.00;;
19030;SDS011;9648;51.130;13.978;2023-04-24T14:59:43;1.75;;;0.70;;